Time;durP1;ratioP1;P1;durP2;ratioP2;P2;SDS_P1;SDS_P2;PMS_P1;PMS_P2;Temp;Humidity;BMP_temperature;BMP_pressure;BME280_temperature;BME280_humidity;BME280_pressure;Samples;Min_cycle;Max_cycle;Signal;HPM_P1;HPM_P2
2021/07/30 00:02:13;;;;;;;4.80;2.97;;;;;;;18.58;65.18;96444.84;5032459;28;20636;-63
2021/07/30 00:04:39;;;;;;;3.33;3.03;;;;;;;18.43;66.11;96447.66;5032532;28;20237;-63
2021/07/30 00:07:04;;;;;;;3.50;3.20;;;;;;;18.48;66.09;96450.25;5031507;28;20194;-64
2021/07/30 00:09:30;;;;;;;7.03;3.30;;;;;;;18.36;66.30;96452.50;5032065;28;20186;-64
2021/07/30 00:11:55;;;;;;;5.17;3.17;;;;;;;18.25;66.70;96443.88;5031394;28;20186;-64
2021/07/30 00:14:21;;;;;;;4.72;3.33;;;;;;;18.21;66.87;96442.09;5032567;28;20194;-63
2021/07/30 00:16:46;;;;;;;6.67;3.70;;;;;;;18.18;67.41;96435.47;5032101;28;20272;-69
2021/07/30 00:19:11;;;;;;;4.83;3.47;;;;;;;18.23;67.18;96442.56;5031657;28;20182;-65
2021/07/30 00:21:37;;;;;;;3.57;3.10;;;;;;;18.19;67.08;96437.06;5032673;28;20666;-63
2021/07/30 00:24:02;;;;;;;3.60;3.13;;;;;;;18.14;67.87;96433.66;5031658;28;20199;-63
2021/07/30 00:26:28;;;;;;;4.40;3.23;;;;;;;18.12;67.71;96441.13;5032047;28;20250;-63
2021/07/30 00:28:53;;;;;;;3.17;2.87;;;;;;;18.32;66.66;96435.59;5030267;28;20185;-63
2021/07/30 00:31:18;;;;;;;6.13;3.47;;;;;;;18.43;66.21;96442.34;5030269;28;20273;-63
2021/07/30 00:33:44;;;;;;;4.13;2.77;;;;;;;18.53;65.67;96436.91;5032203;28;20210;-63
2021/07/30 00:36:09;;;;;;;3.30;3.00;;;;;;;18.19;66.40;96429.09;5030990;28;20187;-63
2021/07/30 00:38:34;;;;;;;5.57;3.10;;;;;;;18.03;67.22;96426.91;5031518;28;20226;-63
2021/07/30 00:41:00;;;;;;;3.57;3.00;;;;;;;17.84;68.36;96419.66;5031032;28;20187;-63
2021/07/30 00:43:26;;;;;;;4.88;2.97;;;;;;;17.83;68.83;96420.72;5030599;28;20191;-63
2021/07/30 00:45:53;;;;;;;4.30;3.20;;;;;;;17.89;68.73;96423.34;5031210;28;20537;-64
2021/07/30 00:48:21;;;;;;;4.70;3.27;;;;;;;17.94;68.67;96423.31;5031982;28;20205;-62
2021/07/30 00:50:46;;;;;;;3.57;2.83;;;;;;;17.92;68.75;96425.44;5031175;28;20550;-69
2021/07/30 00:53:13;;;;;;;4.67;3.03;;;;;;;17.91;68.94;96427.28;5031058;28;20281;-63
2021/07/30 00:55:39;;;;;;;3.75;3.25;;;;;;;17.88;68.84;96425.22;5030662;28;20189;-63
2021/07/30 00:58:05;;;;;;;3.80;3.03;;;;;;;17.82;69.05;96435.09;5028082;28;20195;-63
2021/07/30 01:00:30;;;;;;;5.95;3.63;;;;;;;17.69;69.72;96435.75;5031455;28;20261;-63
2021/07/30 01:02:59;;;;;;;4.27;3.30;;;;;;;17.72;69.70;96434.41;5030688;28;20201;-62
2021/07/30 01:05:25;;;;;;;4.50;3.80;;;;;;;17.79;69.51;96432.97;5031401;28;20195;-63
2021/07/30 01:07:51;;;;;;;6.00;3.83;;;;;;;17.79;70.26;96426.88;5014878;28;20636;-63
2021/07/30 01:10:16;;;;;;;4.67;4.00;;;;;;;17.78;70.87;96430.59;5031568;28;20197;-63
2021/07/30 01:12:43;;;;;;;5.07;4.33;;;;;;;17.76;71.58;96427.47;5031498;28;20209;-62
2021/07/30 01:15:09;;;;;;;6.33;4.03;;;;;;;17.58;72.68;96420.19;5030625;28;20182;-62
2021/07/30 01:17:35;;;;;;;5.33;4.30;;;;;;;17.64;72.43;96421.75;5031081;28;20551;-62
2021/07/30 01:20:00;;;;;;;7.33;3.80;;;;;;;17.56;72.93;96417.78;5031011;28;20269;-63
2021/07/30 01:22:37;;;;;;;5.60;4.13;;;;;;;17.46;73.75;96421.34;5029618;28;20300;-63
2021/07/30 01:25:03;;;;;;;7.23;4.00;;;;;;;17.41;74.07;96421.38;5030338;28;20528;-63
2021/07/30 01:27:28;;;;;;;6.60;4.57;;;;;;;17.44;74.35;96425.34;5030813;28;20187;-66
2021/07/30 01:29:54;;;;;;;6.30;4.83;;;;;;;17.36;74.74;96428.59;5029479;28;20175;-63
2021/07/30 01:32:19;;;;;;;5.20;4.40;;;;;;;17.30;75.03;96429.69;5029749;28;20277;-62
2021/07/30 01:34:45;;;;;;;5.23;4.53;;;;;;;17.59;74.14;96427.06;5031571;28;20179;-62
2021/07/30 01:37:11;;;;;;;6.40;5.13;;;;;;;17.41;74.93;96428.53;5030257;28;20251;-64
2021/07/30 01:39:37;;;;;;;5.20;4.30;;;;;;;17.26;75.41;96432.13;5029478;28;20318;-62
2021/07/30 01:42:03;;;;;;;9.17;4.50;;;;;;;17.31;75.22;96425.97;5029595;28;20236;-63
2021/07/30 01:44:28;;;;;;;5.97;4.27;;;;;;;17.21;75.41;96418.91;5030923;28;20194;-62
2021/07/30 01:46:54;;;;;;;5.43;4.27;;;;;;;17.20;75.09;96419.19;5029859;28;20535;-62
2021/07/30 01:49:19;;;;;;;7.30;4.90;;;;;;;17.13;75.15;96422.16;5030309;28;20193;-63
2021/07/30 01:51:45;;;;;;;4.83;4.23;;;;;;;16.99;75.52;96426.50;5031911;28;20214;-62
2021/07/30 01:54:14;;;;;;;4.30;3.90;;;;;;;17.01;75.36;96421.69;5033919;28;20187;-61
2021/07/30 01:56:39;;;;;;;5.23;4.53;;;;;;;16.92;76.20;96418.88;5035104;28;20260;-60
2021/07/30 01:59:05;;;;;;;5.10;4.50;;;;;;;16.96;75.81;96421.75;5033869;28;20206;-62
2021/07/30 02:01:30;;;;;;;6.43;4.47;;;;;;;16.80;76.27;96415.75;5034620;28;20182;-63
2021/07/30 02:03:55;;;;;;;6.77;4.57;;;;;;;16.76;76.92;96417.38;5034091;28;20230;-63
2021/07/30 02:06:21;;;;;;;5.87;4.60;;;;;;;16.84;76.54;96416.78;5034881;28;20186;-65
2021/07/30 02:08:46;;;;;;;4.83;4.13;;;;;;;16.79;76.91;96416.81;5034762;28;20609;-68
2021/07/30 02:11:13;;;;;;;6.37;4.13;;;;;;;16.82;76.30;96413.66;5034176;28;20193;-62
2021/07/30 02:16:24;;;;;;;5.80;4.00;;;;;;;16.71;76.10;96406.84;5034130;28;20209;-62
2021/07/30 02:18:51;;;;;;;5.33;3.97;;;;;;;16.65;75.87;96413.22;5034311;28;20198;-68
2021/07/30 02:21:17;;;;;;;4.83;3.57;;;;;;;16.68;75.29;96410.00;5034691;28;20175;-64
2021/07/30 02:23:45;;;;;;;3.90;3.43;;;;;;;16.66;74.93;96409.50;5034329;28;20205;-63
2021/07/30 02:26:11;;;;;;;5.43;3.50;;;;;;;16.66;74.71;96406.88;5031814;28;20666;-65
2021/07/30 02:28:36;;;;;;;5.53;3.50;;;;;;;16.57;74.89;96395.22;5032734;28;20178;-64
2021/07/30 02:31:02;;;;;;;5.13;3.43;;;;;;;16.57;74.87;96403.97;5031520;28;20667;-62
2021/07/30 02:33:27;;;;;;;3.93;3.53;;;;;;;16.53;75.23;96402.94;5034242;28;20197;-65
2021/07/30 02:35:53;;;;;;;4.37;3.67;;;;;;;16.58;75.16;96407.41;5033626;28;20177;-64
2021/07/30 02:38:18;;;;;;;3.77;3.17;;;;;;;16.55;75.40;96394.72;5034212;28;20249;-64
2021/07/30 02:40:44;;;;;;;3.37;2.87;;;;;;;16.50;75.36;96397.38;5034632;28;20640;-64
2021/07/30 02:43:09;;;;;;;5.73;3.67;;;;;;;16.46;75.66;96397.16;5033497;28;20175;-64
2021/07/30 02:45:34;;;;;;;4.20;3.43;;;;;;;16.42;75.98;96392.69;5034003;28;20693;-64
2021/07/30 02:48:00;;;;;;;3.70;3.30;;;;;;;16.52;75.75;96393.41;5033429;28;20457;-64
2021/07/30 02:50:25;;;;;;;4.37;3.43;;;;;;;16.49;75.57;96395.81;5033486;28;20175;-64
2021/07/30 02:52:50;;;;;;;3.57;3.13;;;;;;;16.42;76.00;96390.03;5033575;28;20182;-69
2021/07/30 02:55:16;;;;;;;3.87;3.27;;;;;;;16.47;75.64;96390.00;5034020;28;20190;-64
2021/07/30 02:57:44;;;;;;;4.00;3.33;;;;;;;16.46;75.83;96389.22;5034099;28;20223;-63
2021/07/30 03:00:10;;;;;;;3.73;3.33;;;;;;;16.48;75.82;96388.94;5033188;28;20179;-63
2021/07/30 03:02:35;;;;;;;4.07;3.60;;;;;;;16.47;75.69;96382.06;5033343;28;20174;-63
2021/07/30 03:05:01;;;;;;;5.57;3.67;;;;;;;16.38;76.09;96381.88;5032995;28;20207;-63
2021/07/30 03:07:26;;;;;;;4.23;3.23;;;;;;;16.47;75.52;96376.78;5034042;28;20202;-63
2021/07/30 03:09:51;;;;;;;3.60;3.30;;;;;;;16.48;75.46;96378.38;5032607;28;20195;-69
2021/07/30 03:12:17;;;;;;;5.60;3.53;;;;;;;16.53;75.33;96376.47;5033354;28;20201;-63
2021/07/30 03:14:42;;;;;;;4.90;3.30;;;;;;;16.47;75.70;96377.56;5033402;28;20186;-63
2021/07/30 03:17:08;;;;;;;4.03;3.20;;;;;;;16.40;75.77;96371.78;5031588;28;20182;-63
2021/07/30 03:19:33;;;;;;;4.73;3.80;;;;;;;16.51;75.17;96385.75;5033695;28;20244;-63
2021/07/30 03:21:59;;;;;;;3.87;3.13;;;;;;;16.51;75.11;96380.44;5032993;28;20182;-63
2021/07/30 03:24:25;;;;;;;4.50;3.40;;;;;;;16.51;74.83;96369.88;5033272;28;20293;-64
2021/07/30 03:26:50;;;;;;;4.03;3.20;;;;;;;16.60;74.25;96374.34;5033051;28;20257;-70
2021/07/30 03:29:15;;;;;;;4.27;3.43;;;;;;;16.43;75.14;96373.91;5031086;28;20551;-64
2021/07/30 03:31:41;;;;;;;4.93;3.40;;;;;;;16.28;76.41;96373.16;5033494;28;20273;-63
2021/07/30 03:34:06;;;;;;;3.70;3.30;;;;;;;16.41;76.15;96368.06;5032918;28;20636;-63
2021/07/30 03:36:32;;;;;;;5.40;3.43;;;;;;;16.63;75.34;96368.50;5031968;28;20542;-63
2021/07/30 03:38:58;;;;;;;4.80;3.70;;;;;;;16.39;76.32;96366.75;5030946;28;20352;-65
2021/07/30 03:41:23;;;;;;;5.00;3.90;;;;;;;16.28;76.69;96373.97;5033395;28;20270;-63
2021/07/30 03:43:48;;;;;;;4.30;3.77;;;;;;;16.35;76.51;96369.16;5032551;28;20235;-70
2021/07/30 03:46:14;;;;;;;4.33;3.23;;;;;;;16.30;76.94;96369.19;5032839;28;20261;-63
2021/07/30 03:48:39;;;;;;;4.23;3.30;;;;;;;16.35;76.76;96363.88;5033509;28;20186;-63
2021/07/30 03:51:05;;;;;;;4.37;3.80;;;;;;;16.27;77.12;96361.81;5031878;28;20214;-63
2021/07/30 03:53:30;;;;;;;6.97;4.30;;;;;;;16.28;77.21;96359.94;5032860;28;20690;-63
2021/07/30 03:55:55;;;;;;;6.27;4.20;;;;;;;16.20;78.11;96361.31;5032016;28;20209;-63
2021/07/30 03:58:21;;;;;;;5.17;4.23;;;;;;;16.12;79.13;96360.03;5032332;28;20191;-64
2021/07/30 04:00:46;;;;;;;5.27;4.67;;;;;;;16.25;79.14;96356.00;5032769;28;20190;-63
2021/07/30 04:03:12;;;;;;;5.60;4.80;;;;;;;16.06;80.55;96357.66;5031880;28;20187;-64
2021/07/30 04:05:37;;;;;;;4.93;4.37;;;;;;;16.00;81.32;96364.84;5032587;28;20195;-63
2021/07/30 04:08:04;;;;;;;5.67;4.87;;;;;;;16.03;81.60;96356.38;5031714;28;20194;-67
2021/07/30 04:10:29;;;;;;;13.77;5.60;;;;;;;16.00;82.15;96366.69;5032779;28;20252;-63
2021/07/30 04:12:55;;;;;;;5.23;4.73;;;;;;;16.13;81.76;96358.16;5031943;28;20583;-64
2021/07/30 04:15:20;;;;;;;5.40;4.73;;;;;;;15.99;82.63;96352.69;5032274;28;20191;-63
2021/07/30 04:17:48;;;;;;;7.17;4.77;;;;;;;15.99;82.91;96365.13;5032779;28;20183;-63
2021/07/30 04:20:13;;;;;;;5.87;4.53;;;;;;;15.94;83.35;96362.50;5031872;28;20189;-63
2021/07/30 04:22:39;;;;;;;7.13;4.93;;;;;;;16.09;82.87;96357.16;5032525;28;20182;-64
2021/07/30 04:25:05;;;;;;;8.13;4.90;;;;;;;16.02;83.65;96357.44;5031449;28;20748;-64
2021/07/30 04:27:30;;;;;;;5.50;4.60;;;;;;;16.17;82.82;96359.19;5032135;28;20187;-64
2021/07/30 04:29:55;;;;;;;5.70;5.03;;;;;;;16.13;83.20;96356.31;5029744;28;20182;-64
2021/07/30 04:32:21;;;;;;;6.17;4.90;;;;;;;16.36;82.04;96359.38;5032365;28;20183;-64
2021/07/30 04:34:46;;;;;;;8.40;5.20;;;;;;;16.55;80.92;96363.75;5032435;28;20599;-63
2021/07/30 04:37:11;;;;;;;7.80;4.90;;;;;;;16.56;80.67;96364.53;5031603;28;20244;-64
2021/07/30 04:39:37;;;;;;;7.07;4.90;;;;;;;16.38;81.47;96363.34;5031798;28;20295;-64
2021/07/30 04:42:04;;;;;;;4.90;4.40;;;;;;;16.45;81.21;96360.38;5031312;28;20666;-63
2021/07/30 04:44:32;;;;;;;4.87;4.43;;;;;;;16.32;81.64;96366.28;5031763;28;20210;-64
2021/07/30 04:46:57;;;;;;;5.80;4.40;;;;;;;16.47;81.01;96369.63;5030856;28;20186;-63
2021/07/30 04:49:22;;;;;;;6.87;4.90;;;;;;;16.55;80.39;96360.34;5031352;28;20607;-64
2021/07/30 04:51:48;;;;;;;7.83;5.13;;;;;;;16.48;81.17;96365.13;5031134;28;20198;-64
2021/07/30 04:54:13;;;;;;;7.40;5.60;;;;;;;16.51;80.79;96364.56;5030710;28;20198;-69
2021/07/30 04:56:39;;;;;;;5.80;4.63;;;;;;;16.60;80.06;96363.78;5031617;28;20185;-63
2021/07/30 04:59:04;;;;;;;5.70;4.57;;;;;;;16.64;79.99;96366.66;5031021;28;20240;-63
2021/07/30 05:01:29;;;;;;;5.20;4.70;;;;;;;16.68;79.94;96362.38;5031793;28;20605;-63
2021/07/30 05:03:55;;;;;;;5.70;4.80;;;;;;;16.83;79.17;96354.31;5030897;28;20202;-64
2021/07/30 05:06:21;;;;;;;5.23;4.03;;;;;;;17.38;76.54;96366.31;5031727;28;20542;-63
2021/07/30 05:08:47;;;;;;;6.60;4.23;;;;;;;17.76;74.58;96358.53;5031008;28;20186;-63
2021/07/30 05:11:13;;;;;;;8.17;4.30;;;;;;;18.18;73.08;96349.78;5030778;28;20193;-61
2021/07/30 05:13:40;;;;;;;4.07;3.47;;;;;;;18.43;71.81;96348.66;5031430;28;20253;-61
2021/07/30 05:16:10;;;;;;;4.28;3.88;;;;;;;18.77;70.19;96351.13;5031140;28;20197;-61
2021/07/30 05:18:36;;;;;;;3.90;3.50;;;;;;;18.90;69.30;96347.72;5031527;28;20638;-61
2021/07/30 05:21:06;;;;;;;7.45;4.10;;;;;;;18.95;68.59;96351.09;5030901;28;20187;-61
2021/07/30 05:23:32;;;;;;;4.97;3.95;;;;;;;19.18;67.64;96343.28;5029689;28;20190;-60
2021/07/30 05:25:57;;;;;;;4.47;3.60;;;;;;;19.22;67.61;96337.09;5030223;28;20183;-61
2021/07/30 05:28:23;;;;;;;4.82;4.15;;;;;;;19.49;66.92;96347.81;5029818;28;20248;-60
2021/07/30 05:30:48;;;;;;;5.00;3.97;;;;;;;19.41;67.18;96340.47;5030505;28;20640;-61
2021/07/30 05:33:13;;;;;;;4.57;3.67;;;;;;;19.77;65.99;96345.16;5030295;28;20179;-62
2021/07/30 05:35:39;;;;;;;5.13;3.75;;;;;;;20.04;65.09;96349.69;5030990;28;20190;-62
2021/07/30 05:38:04;;;;;;;3.88;3.58;;;;;;;20.18;64.77;96351.22;5030221;28;20190;-62
2021/07/30 05:40:30;;;;;;;4.93;3.60;;;;;;;20.34;64.31;96349.06;5031389;28;20170;-62
2021/07/30 05:42:55;;;;;;;3.90;3.50;;;;;;;20.67;63.22;96355.03;5030516;28;20214;-68
2021/07/30 05:45:21;;;;;;;4.18;3.47;;;;;;;20.78;62.85;96353.69;5030676;28;20206;-62
2021/07/30 05:47:48;;;;;;;4.28;3.35;;;;;;;20.78;62.35;96355.56;5030836;28;20190;-61
2021/07/30 05:50:13;;;;;;;6.60;3.28;;;;;;;20.79;61.47;96349.16;5029474;28;20854;-62
2021/07/30 05:52:39;;;;;;;5.57;3.13;;;;;;;20.78;61.94;96351.03;5031124;28;20261;-62
2021/07/30 05:55:05;;;;;;;4.25;3.25;;;;;;;20.78;62.04;96358.22;5030354;28;20280;-62
2021/07/30 05:57:34;;;;;;;3.65;3.30;;;;;;;20.93;61.64;96355.22;5030622;28;20206;-63
2021/07/30 06:00:01;;;;;;;4.13;3.28;;;;;;;21.12;60.56;96353.16;5028738;28;20182;-65
2021/07/30 06:02:26;;;;;;;6.43;3.30;;;;;;;21.27;60.75;96365.34;5031086;28;20194;-63
2021/07/30 06:04:51;;;;;;;5.25;3.20;;;;;;;21.33;59.78;96356.13;5028441;28;20202;-63
2021/07/30 06:07:17;;;;;;;3.35;2.85;;;;;;;21.26;60.57;96353.09;5028709;28;20232;-63
2021/07/30 06:09:42;;;;;;;3.53;3.22;;;;;;;21.35;59.71;96351.25;5030647;28;20175;-63
2021/07/30 06:12:08;;;;;;;5.15;3.28;;;;;;;21.48;58.63;96350.38;5030103;28;20586;-63
2021/07/30 06:14:33;;;;;;;3.42;3.13;;;;;;;21.54;58.72;96349.16;5031040;28;20273;-62
2021/07/30 06:16:58;;;;;;;5.32;3.28;;;;;;;21.55;58.50;96346.19;5029154;28;20265;-63
2021/07/30 06:19:24;;;;;;;3.63;3.20;;;;;;;21.44;59.07;96338.78;5030839;28;20766;-62
2021/07/30 06:21:49;;;;;;;5.10;3.70;;;;;;;21.48;59.72;96345.06;5030482;28;20236;-63
2021/07/30 06:24:14;;;;;;;4.82;3.42;;;;;;;21.64;59.50;96337.44;5029737;28;20718;-63
2021/07/30 06:26:40;;;;;;;3.72;3.20;;;;;;;21.64;59.58;96338.22;5029742;28;20550;-63
2021/07/30 06:29:05;;;;;;;3.40;3.15;;;;;;;21.68;59.68;96336.50;5028524;28;20202;-62
2021/07/30 06:31:30;;;;;;;4.45;3.22;;;;;;;21.57;59.70;96338.66;5031062;28;20183;-63
2021/07/30 06:33:56;;;;;;;5.25;3.22;;;;;;;21.56;58.64;96339.00;5030539;28;20210;-69
2021/07/30 06:36:21;;;;;;;3.40;3.10;;;;;;;21.69;57.59;96334.63;5030795;28;20194;-63
2021/07/30 06:38:46;;;;;;;3.80;3.40;;;;;;;21.83;58.61;96333.44;5033424;28;20556;-62
2021/07/30 06:41:14;;;;;;;3.33;2.88;;;;;;;22.26;57.64;96343.47;5033580;28;20284;-63
2021/07/30 06:43:40;;;;;;;4.43;3.35;;;;;;;22.23;57.71;96336.09;5034236;28;20194;-62
2021/07/30 06:46:05;;;;;;;3.95;3.25;;;;;;;22.56;56.86;96325.75;5033337;28;20186;-62
2021/07/30 06:48:30;;;;;;;3.17;2.88;;;;;;;22.85;55.90;96328.56;5034329;28;20525;-63
2021/07/30 06:50:56;;;;;;;2.80;2.60;;;;;;;23.05;55.20;96327.16;5031864;28;20175;-66
2021/07/30 06:53:22;;;;;;;3.38;3.03;;;;;;;23.11;54.95;96331.22;5033952;28;20641;-62
2021/07/30 06:55:47;;;;;;;3.67;3.38;;;;;;;23.17;54.11;96325.41;5033801;28;20185;-62
2021/07/30 06:58:13;;;;;;;2.95;2.60;;;;;;;23.34;54.33;96321.09;5032996;28;20229;-62
2021/07/30 07:00:38;;;;;;;3.05;2.83;;;;;;;23.47;54.01;96326.28;5033482;28;20643;-62
2021/07/30 07:03:04;;;;;;;3.80;3.10;;;;;;;23.52;53.51;96334.13;5032811;28;20327;-62
2021/07/30 07:05:29;;;;;;;5.07;3.05;;;;;;;23.71;53.73;96328.41;5033726;28;20209;-61
2021/07/30 07:07:54;;;;;;;3.40;3.03;;;;;;;23.88;52.95;96324.84;5032987;28;20186;-62
2021/07/30 07:10:20;;;;;;;3.17;2.88;;;;;;;24.08;52.39;96320.63;5032900;28;20191;-62
2021/07/30 07:12:45;;;;;;;5.65;3.63;;;;;;;23.96;52.92;96316.00;5033650;28;20253;-63
2021/07/30 07:15:11;;;;;;;4.90;3.13;;;;;;;24.20;52.32;96328.78;5032722;28;20225;-62
2021/07/30 07:17:36;;;;;;;7.63;3.35;;;;;;;24.37;52.08;96321.44;5033889;28;20684;-62
2021/07/30 07:20:02;;;;;;;5.25;3.10;;;;;;;24.29;52.55;96322.28;5033008;28;20640;-63
2021/07/30 07:22:30;;;;;;;3.45;3.15;;;;;;;24.32;52.34;96316.25;5033110;28;20641;-64
2021/07/30 07:24:58;;;;;;;3.30;3.00;;;;;;;24.42;51.94;96307.84;5017413;28;20297;-62
2021/07/30 07:27:23;;;;;;;4.95;3.38;;;;;;;24.44;51.88;96318.22;5031365;28;20278;-62
2021/07/30 07:29:49;;;;;;;3.85;2.97;;;;;;;24.46;52.20;96316.03;5032125;28;20179;-62
2021/07/30 07:32:14;;;;;;;5.00;3.88;;;;;;;24.45;52.45;96311.78;5032119;28;20193;-62
2021/07/30 07:34:40;;;;;;;9.88;3.33;;;;;;;24.45;52.28;96314.44;5033126;28;20199;-62
2021/07/30 07:37:05;;;;;;;4.55;3.00;;;;;;;24.55;52.22;96314.06;5032397;28;20179;-62
2021/07/30 07:39:32;;;;;;;3.50;3.20;;;;;;;24.62;52.51;96306.28;5033298;28;20222;-62
2021/07/30 07:41:57;;;;;;;3.97;3.05;;;;;;;24.68;52.17;96306.88;5033080;28;20187;-67
2021/07/30 07:44:23;;;;;;;3.65;3.15;;;;;;;24.98;51.16;96312.91;5032593;28;20272;-64
2021/07/30 07:46:49;;;;;;;4.50;3.10;;;;;;;25.06;51.09;96312.06;5032616;28;20198;-63
2021/07/30 07:49:14;;;;;;;5.80;2.90;;;;;;;25.15;50.87;96307.38;5031369;28;20202;-62
2021/07/30 07:51:40;;;;;;;3.42;2.97;;;;;;;25.21;50.66;96304.16;5032907;28;20182;-62
2021/07/30 07:54:06;;;;;;;5.90;3.33;;;;;;;25.27;50.77;96304.72;5031728;28;20194;-62
2021/07/30 07:56:31;;;;;;;3.13;2.83;;;;;;;25.28;50.40;96311.66;5032924;28;20281;-62
2021/07/30 07:58:57;;;;;;;5.40;3.10;;;;;;;25.34;50.05;96313.03;5032905;28;20190;-66
2021/07/30 08:01:22;;;;;;;3.10;2.80;;;;;;;25.43;50.26;96308.34;5032200;28;20194;-65
2021/07/30 08:03:48;;;;;;;3.67;3.28;;;;;;;25.51;48.86;96309.38;5032355;28;20600;-64
2021/07/30 08:06:17;;;;;;;4.15;2.72;;;;;;;25.29;49.05;96307.09;5031743;28;20201;-65
2021/07/30 08:08:43;;;;;;;3.28;2.83;;;;;;;25.19;49.23;96305.59;5032727;28;20282;-64
2021/07/30 08:11:08;;;;;;;3.22;2.92;;;;;;;25.22;49.27;96302.25;5032008;28;20234;-65
2021/07/30 08:13:33;;;;;;;3.28;2.92;;;;;;;25.08;49.71;96299.09;5032462;28;20213;-64
2021/07/30 08:15:59;;;;;;;3.88;2.65;;;;;;;25.23;49.54;96306.53;5031960;28;20209;-73
2021/07/30 08:18:24;;;;;;;3.22;2.92;;;;;;;25.32;49.58;96309.88;5032506;28;20285;-64
2021/07/30 08:20:49;;;;;;;3.42;3.13;;;;;;;25.42;49.39;96311.34;5032019;28;20187;-65
2021/07/30 08:23:15;;;;;;;4.72;3.60;;;;;;;25.39;50.01;96310.13;5031276;28;20697;-65
2021/07/30 08:25:40;;;;;;;4.80;3.30;;;;;;;25.39;50.27;96315.50;5032053;28;20213;-65
2021/07/30 08:28:06;;;;;;;3.38;3.08;;;;;;;25.54;49.13;96311.38;5029154;28;20218;-65
2021/07/30 08:30:31;;;;;;;6.75;3.08;;;;;;;25.77;48.89;96307.16;5032358;28;20182;-64
2021/07/30 08:32:57;;;;;;;4.82;3.00;;;;;;;25.52;48.17;96302.88;5032454;28;20191;-64
2021/07/30 08:35:23;;;;;;;4.15;2.70;;;;;;;25.61;47.70;96303.59;5030418;28;20245;-65
2021/07/30 08:37:48;;;;;;;3.65;3.22;;;;;;;25.42;47.76;96306.75;5031428;28;20549;-64
2021/07/30 08:40:14;;;;;;;3.35;2.95;;;;;;;25.41;48.49;96307.88;5030672;28;20237;-64
2021/07/30 08:42:40;;;;;;;3.67;2.90;;;;;;;25.49;48.59;96303.53;5031663;28;20193;-64
2021/07/30 08:45:07;;;;;;;3.70;3.22;;;;;;;25.47;48.58;96301.19;5030898;28;20206;-65
2021/07/30 08:47:34;;;;;;;6.53;3.28;;;;;;;25.60;49.04;96304.69;5030746;28;20206;-64
2021/07/30 08:49:59;;;;;;;5.18;2.72;;;;;;;25.81;48.05;96305.38;5030632;28;20250;-74
2021/07/30 08:52:36;;;;;;;3.28;2.97;;;;;;;25.85;47.29;96292.84;5031292;28;20194;-64
2021/07/30 08:55:03;;;;;;;3.30;3.00;;;;;;;25.91;47.02;96296.88;5030707;28;20178;-73
2021/07/30 08:57:28;;;;;;;3.50;2.97;;;;;;;25.98;46.50;96294.41;5031730;28;20590;-64
2021/07/30 08:59:54;;;;;;;2.92;2.70;;;;;;;25.97;46.21;96294.75;5030694;28;20260;-64
2021/07/30 09:02:19;;;;;;;3.88;3.00;;;;;;;25.80;46.46;96284.25;5031142;28;20186;-64
2021/07/30 09:04:44;;;;;;;3.17;2.88;;;;;;;26.03;46.56;96285.31;5031243;28;20758;-67
2021/07/30 09:07:10;;;;;;;3.30;3.00;;;;;;;25.92;46.89;96286.91;5030361;28;20190;-64
2021/07/30 09:09:35;;;;;;;3.47;3.17;;;;;;;25.99;46.82;96295.19;5029842;28;20262;-66
2021/07/30 09:12:04;;;;;;;3.40;3.10;;;;;;;26.17;45.79;96295.72;5031240;28;20187;-73
2021/07/30 09:14:41;;;;;;;4.00;3.05;;;;;;;25.85;45.62;96289.38;5031321;28;20233;-64
2021/07/30 09:17:07;;;;;;;3.25;2.95;;;;;;;25.72;46.09;96275.16;5030687;28;20218;-64
2021/07/30 09:19:33;;;;;;;5.38;2.78;;;;;;;25.80;46.75;96276.19;5031451;28;20666;-64
2021/07/30 09:22:09;;;;;;;7.72;2.90;;;;;;;26.05;46.03;96283.09;5030956;28;20241;-64
2021/07/30 09:24:43;;;;;;;4.18;2.60;;;;;;;26.21;46.41;96280.47;5031111;28;20264;-64
2021/07/30 09:27:12;;;;;;;7.72;3.15;;;;;;;26.25;45.47;96274.13;5028367;28;20607;-64
2021/07/30 09:29:40;;;;;;;3.00;2.80;;;;;;;26.52;45.46;96274.50;5031131;28;20240;-63
2021/07/30 09:32:10;;;;;;;7.85;4.35;;;;;;;26.24;46.36;96280.63;5030086;28;20194;-65
2021/07/30 09:34:41;;;;;;;10.60;5.88;;;;;;;26.36;45.90;96285.97;5031127;28;20183;-64
2021/07/30 09:37:07;;;;;;;18.58;9.52;;;;;;;26.00;46.81;96276.06;5030195;28;20183;-64
2021/07/30 09:39:32;;;;;;;8.75;5.55;;;;;;;26.22;46.14;96284.75;5030157;28;20304;-63
2021/07/30 09:42:05;;;;;;;9.93;4.50;;;;;;;26.35;46.19;96275.56;5031101;28;20187;-63
2021/07/30 09:44:32;;;;;;;3.95;3.15;;;;;;;26.41;45.60;96260.78;5030847;28;20230;-63
2021/07/30 09:47:07;;;;;;;4.15;3.20;;;;;;;26.39;46.25;96273.75;5031174;28;20186;-64
2021/07/30 09:49:55;;;;;;;4.18;3.28;;;;;;;26.53;45.75;96268.78;5030024;28;20228;-64
2021/07/30 09:52:26;;;;;;;5.22;3.35;;;;;;;26.47;46.03;96256.72;5030149;28;20755;-64
2021/07/30 09:54:59;;;;;;;3.42;3.13;;;;;;;26.06;47.03;96253.22;5031077;28;20230;-64
2021/07/30 09:57:26;;;;;;;4.05;3.58;;;;;;;25.96;47.42;96253.69;5030114;28;20393;-66
2021/07/30 09:59:59;;;;;;;4.75;3.63;;;;;;;26.04;47.28;96243.91;5030638;28;20183;-65
2021/07/30 10:02:29;;;;;;;3.72;3.42;;;;;;;26.06;46.86;96242.47;5019915;28;20206;-64
2021/07/30 10:04:54;;;;;;;3.67;3.33;;;;;;;26.09;47.00;96233.72;5030749;28;20285;-65
2021/07/30 10:07:22;;;;;;;4.85;3.80;;;;;;;26.17;46.17;96244.69;5029016;28;20282;-65
2021/07/30 10:10:06;;;;;;;4.28;3.20;;;;;;;26.26;46.42;96237.28;5030403;28;20199;-65
2021/07/30 10:12:34;;;;;;;4.07;3.67;;;;;;;26.51;46.78;96229.94;5031980;28;20535;-63
2021/07/30 10:15:00;;;;;;;3.75;3.13;;;;;;;26.64;46.76;96226.06;5034881;28;20182;-65
2021/07/30 10:17:37;;;;;;;3.15;2.88;;;;;;;26.46;46.79;96225.59;5033870;28;20190;-65
2021/07/30 10:20:06;;;;;;;4.60;3.25;;;;;;;26.91;45.89;96229.88;5034346;28;20178;-75
2021/07/30 10:22:39;;;;;;;3.75;3.30;;;;;;;27.31;45.31;96225.91;5032910;28;20198;-63
2021/07/30 10:25:06;;;;;;;3.40;3.10;;;;;;;27.89;44.52;96214.56;5027524;28;20233;-74
2021/07/30 10:27:32;;;;;;;3.78;3.42;;;;;;;28.17;43.65;96219.81;5032338;28;20205;-63
2021/07/30 10:30:04;;;;;;;4.68;3.10;;;;;;;28.49;42.47;96219.31;5031684;28;20195;-67
2021/07/30 10:32:43;;;;;;;3.55;3.25;;;;;;;28.93;42.36;96221.72;5034616;28;20194;-63
2021/07/30 10:35:09;;;;;;;4.00;3.60;;;;;;;29.08;42.00;96225.44;5033046;28;20263;-65
2021/07/30 10:37:42;;;;;;;5.15;3.65;;;;;;;29.13;41.72;96231.34;5033545;28;20600;-65
2021/07/30 10:40:18;;;;;;;4.13;3.70;;;;;;;28.79;42.15;96224.16;5023847;28;20246;-65
2021/07/30 10:43:07;;;;;;;4.03;3.47;;;;;;;28.77;42.36;96221.03;5034231;28;20261;-64
2021/07/30 10:45:36;;;;;;;4.43;3.30;;;;;;;29.08;42.17;96217.34;5034786;28;20221;-65
2021/07/30 10:48:14;;;;;;;3.85;3.53;;;;;;;29.42;40.87;96221.81;5026240;28;20709;-64
2021/07/30 10:50:44;;;;;;;3.90;3.22;;;;;;;29.45;40.72;96220.31;5033699;28;20248;-65
2021/07/30 10:55:57;;;;;;;4.35;3.33;;;;;;;29.84;40.04;96204.69;5033356;28;20265;-64
2021/07/30 10:58:45;;;;;;;4.30;3.90;;;;;;;30.06;39.79;96203.84;5032418;28;20298;-66
2021/07/30 11:01:15;;;;;;;4.78;3.78;;;;;;;30.08;40.25;96196.94;5032360;28;20194;-64
2021/07/30 11:03:52;;;;;;;4.30;3.42;;;;;;;30.24;40.10;96202.16;5031135;28;20179;-64
2021/07/30 11:06:24;;;;;;;3.60;3.22;;;;;;;30.40;39.52;96202.72;5031702;28;20193;-64
2021/07/30 11:09:05;;;;;;;3.67;3.08;;;;;;;30.52;38.70;96194.41;5033305;28;20271;-64
2021/07/30 11:11:36;;;;;;;4.00;3.60;;;;;;;30.39;38.79;96192.28;5033179;28;20182;-64
2021/07/30 11:14:11;;;;;;;3.60;3.30;;;;;;;30.67;38.23;96181.03;5034098;28;20278;-66
2021/07/30 11:16:37;;;;;;;4.07;3.45;;;;;;;30.52;38.39;96178.19;5032802;28;20540;-63
2021/07/30 11:19:04;;;;;;;3.72;3.42;;;;;;;30.55;39.47;96187.47;5033055;28;20195;-64
2021/07/30 11:21:30;;;;;;;3.65;3.35;;;;;;;30.74;38.79;96184.59;5033175;28;20190;-64
2021/07/30 11:24:01;;;;;;;3.60;3.30;;;;;;;30.12;39.60;96189.66;5032911;28;20187;-64
2021/07/30 11:26:29;;;;;;;4.50;3.58;;;;;;;30.22;39.91;96185.50;5029737;28;20187;-63
2021/07/30 11:28:59;;;;;;;5.43;3.15;;;;;;;30.30;39.26;96187.16;5033932;28;20583;-63
2021/07/30 11:31:25;;;;;;;3.92;3.33;;;;;;;30.22;39.67;96174.69;5032285;28;20433;-63
2021/07/30 11:33:52;;;;;;;4.30;3.30;;;;;;;30.26;39.93;96177.47;5033198;28;20194;-63
2021/07/30 11:36:18;;;;;;;4.18;2.92;;;;;;;29.08;41.93;96174.94;5030575;28;20266;-64
2021/07/30 11:38:50;;;;;;;3.53;3.22;;;;;;;28.11;43.51;96174.25;5031771;28;20615;-63